createdAt,value
2023-03-17T00:00:33.708Z,5.99
2023-03-17T00:03:19.555Z,6.00
2023-03-17T00:06:06.008Z,5.95
2023-03-17T00:08:52.044Z,6.00
2023-03-17T00:11:37.938Z,6.01
2023-03-17T00:14:23.909Z,6.02
2023-03-17T00:17:12.898Z,6.00
2023-03-17T00:19:58.809Z,5.89
2023-03-17T00:22:45.477Z,5.80
2023-03-17T00:25:33.715Z,5.87
2023-03-17T00:28:23.841Z,5.67
2023-03-17T00:31:24.503Z,5.85
2023-03-17T00:34:16.833Z,5.79
2023-03-17T00:37:04.301Z,5.95
2023-03-17T00:39:50.176Z,5.89
2023-03-17T00:42:36.982Z,5.81
2023-03-17T00:45:23.966Z,5.75
2023-03-17T00:48:15.650Z,5.93
2023-03-17T00:51:02.729Z,5.81
2023-03-17T00:53:49.073Z,5.82
2023-03-17T00:56:35.167Z,5.86
2023-03-17T00:59:34.030Z,5.82
2023-03-17T01:02:19.776Z,5.99
2023-03-17T01:05:07.227Z,5.87
2023-03-17T01:07:55.375Z,5.79
2023-03-17T01:10:42.757Z,5.82
2023-03-17T01:13:29.901Z,5.85
2023-03-17T01:16:15.912Z,5.76
2023-03-17T01:19:02.304Z,5.88
2023-03-17T01:21:48.411Z,5.84
2023-03-17T01:24:34.530Z,5.83
2023-03-17T01:27:20.713Z,5.81
2023-03-17T01:30:09.386Z,5.85
2023-03-17T01:32:56.825Z,5.76
2023-03-17T01:35:46.902Z,5.74
2023-03-17T01:38:33.163Z,5.64
2023-03-17T01:41:20.849Z,5.76
2023-03-17T01:44:07.383Z,5.77
2023-03-17T01:46:54.645Z,5.84
2023-03-17T01:49:42.330Z,5.73
2023-03-17T01:52:29.029Z,5.72
2023-03-17T01:55:21.038Z,5.70
2023-03-17T01:58:09.470Z,5.62
2023-03-17T02:00:56.300Z,5.62
2023-03-17T02:03:42.424Z,5.62
2023-03-17T02:06:29.804Z,5.67
2023-03-17T02:09:15.830Z,5.58
2023-03-17T02:12:03.997Z,5.60
2023-03-17T02:14:51.579Z,5.66
2023-03-17T02:17:38.373Z,5.75
2023-03-17T02:20:24.452Z,5.67
2023-03-17T02:23:11.825Z,5.65
2023-03-17T02:25:59.546Z,5.57
2023-03-17T02:28:46.233Z,5.41
2023-03-17T02:31:33.685Z,5.67
2023-03-17T02:34:19.579Z,5.67
2023-03-17T02:37:07.807Z,5.65
2023-03-17T02:39:53.959Z,5.39
2023-03-17T02:42:40.214Z,5.47
2023-03-17T02:45:27.272Z,5.59
2023-03-17T02:48:13.675Z,5.67
2023-03-17T02:50:59.790Z,5.62
2023-03-17T02:53:45.663Z,5.78
2023-03-17T02:56:31.995Z,5.76
2023-03-17T02:59:18.061Z,5.69
2023-03-17T03:02:04.093Z,5.78
2023-03-17T03:04:50.462Z,5.69
2023-03-17T03:07:36.780Z,5.74
2023-03-17T03:10:22.698Z,5.72
2023-03-17T03:13:08.481Z,5.76
2023-03-17T03:15:54.618Z,5.73
2023-03-17T03:18:40.655Z,5.80
2023-03-17T03:21:26.675Z,5.79
2023-03-17T03:24:12.862Z,5.61
2023-03-17T03:26:58.911Z,5.70
2023-03-17T03:29:45.106Z,5.85
2023-03-17T03:32:31.647Z,5.77
2023-03-17T03:35:17.384Z,5.74
2023-03-17T03:38:03.432Z,5.76
2023-03-17T03:40:49.669Z,5.88
2023-03-17T03:43:35.969Z,5.74
2023-03-17T03:46:21.943Z,5.81
2023-03-17T03:49:07.859Z,5.78
2023-03-17T03:51:53.614Z,5.73
2023-03-17T03:54:39.498Z,5.88
2023-03-17T03:57:25.384Z,5.88
2023-03-17T04:00:14.238Z,5.97
2023-03-17T04:03:00.465Z,5.93
2023-03-17T04:05:46.572Z,5.86
2023-03-17T04:08:32.614Z,5.96
2023-03-17T04:11:18.587Z,5.94
2023-03-17T04:14:06.404Z,5.82
2023-03-17T04:16:52.132Z,5.85
2023-03-17T04:19:39.121Z,5.87
2023-03-17T04:22:24.964Z,5.86
2023-03-17T04:25:12.151Z,5.90
2023-03-17T04:27:58.241Z,5.86
2023-03-17T04:30:44.120Z,5.91
2023-03-17T04:33:29.906Z,5.93
2023-03-17T04:36:19.449Z,5.82
2023-03-17T04:39:05.662Z,5.97
2023-03-17T04:41:51.385Z,6.01
2023-03-17T04:44:37.754Z,5.86
2023-03-17T04:47:23.947Z,5.98
2023-03-17T04:50:10.765Z,5.94
2023-03-17T04:52:57.437Z,6.03
2023-03-17T04:55:43.470Z,5.99
2023-03-17T04:58:31.164Z,6.01
2023-03-17T05:01:17.411Z,5.97
2023-03-17T05:04:03.793Z,6.01
2023-03-17T05:06:49.727Z,6.04
2023-03-17T05:09:35.625Z,6.08
2023-03-17T05:12:21.341Z,6.10
2023-03-17T05:15:07.706Z,6.02
2023-03-17T05:17:53.614Z,6.03
2023-03-17T05:20:39.421Z,6.06
2023-03-17T05:23:26.170Z,6.02
2023-03-17T05:26:11.939Z,6.01
2023-03-17T05:28:57.813Z,6.02
2023-03-17T05:31:43.848Z,5.95
2023-03-17T05:34:30.061Z,5.93
2023-03-17T05:37:16.025Z,5.99
2023-03-17T05:40:02.274Z,5.89
2023-03-17T05:42:48.128Z,5.89
2023-03-17T05:45:33.986Z,5.99
2023-03-17T05:48:19.718Z,5.88
2023-03-17T05:51:05.898Z,5.98
2023-03-17T05:53:52.243Z,6.01
2023-03-17T05:56:38.510Z,6.05
2023-03-17T05:59:25.273Z,6.03
2023-03-17T06:02:12.134Z,5.94
2023-03-17T06:04:57.906Z,6.05
2023-03-17T06:07:53.130Z,6.01
2023-03-17T06:10:41.540Z,5.74
2023-03-17T06:13:27.783Z,6.13
2023-03-17T06:16:13.753Z,5.99
2023-03-17T06:18:59.946Z,6.06
2023-03-17T06:21:46.589Z,6.05
2023-03-17T06:24:32.616Z,6.10
2023-03-17T06:27:18.275Z,6.01
2023-03-17T06:30:06.437Z,6.15
2023-03-17T06:32:52.579Z,6.18
2023-03-17T06:35:38.556Z,6.15
2023-03-17T06:38:24.814Z,6.05
2023-03-17T06:41:11.140Z,6.23
2023-03-17T06:43:57.216Z,6.24
2023-03-17T06:46:43.538Z,6.32
2023-03-17T06:49:29.280Z,6.28
2023-03-17T06:52:15.582Z,6.45
2023-03-17T06:55:01.956Z,6.30
2023-03-17T06:57:50.894Z,6.27
2023-03-17T07:00:40.020Z,6.34
2023-03-17T07:03:26.668Z,6.40
2023-03-17T07:06:12.511Z,6.48
2023-03-17T07:09:00.350Z,6.49
2023-03-17T07:11:48.015Z,6.51
2023-03-17T07:14:36.683Z,6.58
2023-03-17T07:17:22.271Z,6.53
2023-03-17T07:20:09.704Z,6.66
2023-03-17T07:22:55.701Z,6.62
2023-03-17T07:25:43.642Z,6.67
2023-03-17T07:28:29.213Z,6.64
2023-03-17T07:31:15.342Z,6.70
2023-03-17T07:34:01.241Z,6.71
2023-03-17T07:36:47.148Z,6.73
2023-03-17T07:39:33.276Z,6.65
2023-03-17T07:42:19.788Z,6.78
2023-03-17T07:45:07.987Z,6.83
2023-03-17T07:47:54.176Z,6.89
2023-03-17T07:50:40.492Z,6.99
2023-03-17T07:53:26.640Z,7.02
2023-03-17T07:56:13.028Z,7.07
2023-03-17T07:58:59.235Z,7.00
2023-03-17T08:01:45.341Z,7.17
2023-03-17T08:04:31.112Z,7.23
2023-03-17T08:07:17.193Z,7.36
2023-03-17T08:10:05.422Z,7.36
2023-03-17T08:12:53.423Z,7.36
2023-03-17T08:15:39.502Z,7.39
2023-03-17T08:18:25.395Z,7.46
2023-03-17T08:21:11.312Z,7.60
2023-03-17T08:23:57.350Z,7.64
2023-03-17T08:26:43.490Z,7.67
2023-03-17T08:29:30.097Z,7.71
2023-03-17T08:32:16.274Z,7.73
2023-03-17T08:35:02.629Z,7.72
2023-03-17T08:37:48.707Z,7.87
2023-03-17T08:40:35.055Z,7.89
2023-03-17T08:43:22.023Z,7.93
2023-03-17T08:46:17.066Z,7.99
2023-03-17T08:49:03.415Z,8.07
2023-03-17T08:51:49.233Z,8.21
2023-03-17T08:54:35.963Z,8.19
2023-03-17T08:57:22.936Z,8.33
2023-03-17T09:00:11.402Z,8.49
2023-03-17T09:02:58.463Z,8.63
2023-03-17T09:05:45.260Z,8.71
2023-03-17T09:08:30.724Z,8.81
2023-03-17T09:11:18.939Z,8.91
2023-03-17T09:14:04.769Z,8.92
2023-03-17T09:16:50.919Z,8.96
2023-03-17T09:19:37.175Z,9.05
2023-03-17T09:22:23.321Z,9.11
2023-03-17T09:25:09.542Z,9.14
2023-03-17T09:27:55.729Z,9.25
2023-03-17T09:30:42.833Z,9.21
2023-03-17T09:33:29.141Z,9.14
2023-03-17T09:36:15.187Z,9.28
2023-03-17T09:39:01.453Z,9.33
2023-03-17T09:42:12.281Z,9.33
2023-03-17T09:45:32.349Z,9.36
2023-03-17T09:48:52.759Z,9.37
2023-03-17T09:51:40.532Z,9.39
2023-03-17T09:54:29.242Z,9.51
2023-03-17T09:57:33.214Z,9.45
2023-03-17T10:00:24.306Z,9.60
2023-03-17T10:03:11.243Z,9.65
2023-03-17T10:06:10.449Z,9.67
2023-03-17T10:09:10.736Z,9.69
2023-03-17T10:12:20.496Z,9.72
2023-03-17T10:15:16.503Z,9.71
2023-03-17T10:18:12.744Z,9.68
2023-03-17T10:21:04.992Z,9.63
2023-03-17T10:23:51.214Z,9.61
2023-03-17T10:26:46.759Z,9.72
2023-03-17T10:29:32.693Z,9.77
2023-03-17T10:32:18.739Z,9.74
2023-03-17T10:35:04.901Z,9.77
2023-03-17T10:37:53.380Z,9.70
2023-03-17T10:40:59.550Z,9.81
2023-03-17T10:43:47.867Z,9.71
2023-03-17T10:46:33.979Z,9.72
2023-03-17T10:49:22.978Z,9.62
2023-03-17T10:52:21.156Z,9.68
2023-03-17T10:55:09.116Z,9.85
2023-03-17T10:58:01.005Z,9.80
2023-03-17T11:01:00.032Z,9.89
2023-03-17T11:03:46.921Z,10.01
2023-03-17T11:06:44.214Z,9.95
2023-03-17T11:09:35.296Z,10.03
2023-03-17T11:12:24.035Z,10.06
2023-03-17T11:15:17.944Z,10.10
2023-03-17T11:18:11.396Z,10.24
2023-03-17T11:20:59.132Z,10.26
2023-03-17T11:23:47.812Z,10.27
2023-03-17T11:26:57.602Z,10.31
2023-03-17T11:29:51.933Z,10.19
2023-03-17T11:32:44.456Z,10.27
2023-03-17T11:35:50.049Z,10.29
2023-03-17T11:38:39.891Z,10.37
2023-03-17T11:41:41.300Z,10.31
2023-03-17T11:44:56.761Z,10.30
2023-03-17T11:47:52.318Z,10.49
2023-03-17T11:50:51.998Z,10.38
2023-03-17T11:53:45.203Z,10.08
2023-03-17T11:56:40.529Z,10.39
2023-03-17T11:59:36.276Z,10.44
2023-03-17T12:02:28.756Z,10.49
2023-03-17T12:05:23.094Z,10.50
2023-03-17T12:08:23.717Z,10.56
2023-03-17T12:11:15.351Z,10.54
2023-03-17T12:14:05.023Z,10.58
2023-03-17T12:16:55.782Z,10.65
2023-03-17T12:20:05.894Z,10.49
2023-03-17T12:22:57.215Z,10.63
2023-03-17T12:26:06.833Z,10.46
2023-03-17T12:29:00.532Z,10.68
2023-03-17T12:31:53.195Z,10.70
2023-03-17T12:34:57.928Z,10.43
2023-03-17T12:37:43.964Z,10.61
2023-03-17T12:40:37.458Z,10.57
2023-03-17T12:43:32.721Z,10.59
2023-03-17T12:46:29.078Z,10.70
2023-03-17T12:49:28.715Z,10.69
2023-03-17T12:52:42.066Z,10.75
2023-03-17T12:55:32.218Z,10.88
2023-03-17T12:58:45.242Z,10.87
2023-03-17T13:01:34.229Z,10.94
2023-03-17T13:04:37.175Z,10.93
2023-03-17T13:07:25.749Z,11.03
2023-03-17T13:10:13.688Z,11.10
2023-03-17T13:13:08.975Z,10.89
2023-03-17T13:15:58.309Z,11.01
2023-03-17T13:18:47.859Z,11.08
2023-03-17T13:21:36.353Z,11.14
2023-03-17T13:24:36.213Z,11.11
2023-03-17T13:27:31.279Z,11.24
2023-03-17T13:30:24.336Z,11.27
2023-03-17T13:33:10.368Z,11.29
2023-03-17T13:36:33.679Z,11.41
2023-03-17T13:39:31.034Z,11.60
2023-03-17T13:42:18.583Z,11.72
2023-03-17T13:45:08.482Z,11.79
2023-03-17T13:48:27.345Z,11.83
2023-03-17T13:51:20.824Z,11.97
2023-03-17T13:54:09.871Z,12.06
2023-03-17T13:56:59.428Z,12.38
2023-03-17T14:00:04.075Z,12.42
2023-03-17T14:03:14.644Z,12.96
2023-03-17T14:06:03.806Z,13.37
2023-03-17T14:08:56.049Z,14.03
2023-03-17T14:11:45.934Z,14.55
2023-03-17T14:14:50.528Z,14.94
2023-03-17T14:17:56.012Z,15.43
2023-03-17T14:20:53.431Z,15.66
2023-03-17T14:23:39.592Z,15.62
2023-03-17T14:26:28.343Z,15.68
2023-03-17T14:29:20.506Z,15.57
2023-03-17T14:32:16.000Z,15.43
2023-03-17T14:35:01.691Z,15.25
2023-03-17T14:37:47.532Z,15.13
2023-03-17T14:40:36.936Z,14.91
2023-03-17T14:43:23.210Z,14.72
2023-03-17T14:46:37.350Z,14.46
2023-03-17T14:49:23.391Z,14.29
2023-03-17T14:52:18.708Z,14.14
2023-03-17T14:55:06.238Z,13.97
2023-03-17T14:57:52.826Z,13.69
2023-03-17T15:00:45.536Z,13.75
2023-03-17T15:03:33.195Z,13.70
2023-03-17T15:06:23.718Z,13.69
2023-03-17T15:09:33.424Z,13.60
2023-03-17T15:12:23.406Z,13.65
2023-03-17T15:15:23.353Z,13.69
2023-03-17T15:18:14.195Z,13.71
2023-03-17T15:21:01.142Z,13.69
2023-03-17T15:23:48.823Z,13.78
2023-03-17T15:26:37.160Z,13.90
2023-03-17T15:29:22.960Z,13.90
2023-03-17T15:32:15.298Z,13.86
2023-03-17T15:35:01.086Z,13.75
2023-03-17T15:37:47.170Z,13.72
2023-03-17T15:40:33.669Z,13.60
2023-03-17T15:43:23.331Z,13.51
2023-03-17T15:46:18.931Z,13.34
2023-03-17T15:49:09.709Z,13.38
2023-03-17T15:51:55.481Z,13.43
2023-03-17T15:54:41.508Z,13.56
2023-03-17T15:57:27.437Z,13.61
2023-03-17T16:00:20.904Z,13.66
2023-03-17T16:03:17.114Z,13.71
2023-03-17T16:06:05.144Z,13.72
2023-03-17T16:08:51.725Z,13.65
2023-03-17T16:11:40.352Z,13.55
2023-03-17T16:14:27.868Z,13.40
2023-03-17T16:17:36.877Z,13.30
2023-03-17T16:20:32.103Z,13.19
2023-03-17T16:23:19.403Z,13.07
2023-03-17T16:26:14.642Z,13.02
2023-03-17T16:29:01.962Z,12.85
2023-03-17T16:31:49.828Z,12.66
2023-03-17T16:34:36.054Z,12.64
2023-03-17T16:37:22.056Z,12.49
2023-03-17T16:40:27.260Z,12.28
2023-03-17T16:43:25.835Z,12.20
2023-03-17T16:46:12.785Z,12.13
2023-03-17T16:48:58.843Z,11.97
2023-03-17T16:51:44.952Z,11.90
2023-03-17T16:54:33.288Z,11.80
2023-03-17T16:57:19.935Z,11.70
2023-03-17T17:00:10.623Z,11.69
2023-03-17T17:02:57.324Z,11.53
2023-03-17T17:05:43.484Z,11.53
2023-03-17T17:08:29.349Z,11.45
2023-03-17T17:11:16.867Z,11.40
2023-03-17T17:14:03.647Z,11.38
2023-03-17T17:16:49.787Z,11.33
2023-03-17T17:19:35.645Z,11.29
2023-03-17T17:22:21.744Z,11.25
2023-03-17T17:25:10.179Z,11.18
2023-03-17T17:27:57.423Z,11.16
2023-03-17T17:30:46.302Z,11.11
2023-03-17T17:33:32.257Z,11.04
2023-03-17T17:36:18.906Z,10.94
2023-03-17T17:39:04.572Z,10.88
2023-03-17T17:41:50.682Z,10.89
2023-03-17T17:44:41.039Z,10.82
2023-03-17T17:47:27.582Z,10.75
2023-03-17T17:50:26.070Z,10.68
2023-03-17T17:53:12.595Z,10.68
2023-03-17T17:55:58.923Z,10.57
2023-03-17T17:58:45.773Z,10.56
2023-03-17T18:01:31.671Z,10.51
2023-03-17T18:04:17.798Z,10.43
2023-03-17T18:07:04.641Z,10.42
2023-03-17T18:09:50.773Z,10.33
2023-03-17T18:12:36.751Z,10.29
2023-03-17T18:15:24.451Z,10.24
2023-03-17T18:18:11.019Z,10.17
2023-03-17T18:20:57.382Z,10.13
2023-03-17T18:23:47.180Z,10.08
2023-03-17T18:26:33.619Z,9.95
2023-03-17T18:29:19.693Z,9.87
2023-03-17T18:32:08.858Z,9.87
2023-03-17T18:34:56.106Z,9.77
2023-03-17T18:37:42.747Z,9.69
2023-03-17T18:40:28.717Z,9.67
2023-03-17T18:43:14.448Z,9.58
2023-03-17T18:46:00.498Z,9.38
2023-03-17T18:48:46.758Z,9.44
2023-03-17T18:51:33.166Z,9.36
2023-03-17T18:54:19.276Z,9.28
2023-03-17T18:57:05.635Z,9.16
2023-03-17T18:59:51.498Z,9.05
2023-03-17T19:02:37.855Z,9.00
2023-03-17T19:05:24.490Z,8.88
2023-03-17T19:08:11.703Z,8.87
2023-03-17T19:10:57.902Z,8.76
2023-03-17T19:13:49.266Z,8.60
2023-03-17T19:16:36.224Z,8.54
2023-03-17T19:19:22.264Z,8.43
2023-03-17T19:22:08.328Z,8.31
2023-03-17T19:24:54.420Z,8.34
2023-03-17T19:27:40.407Z,8.29
2023-03-17T19:30:27.156Z,8.23
2023-03-17T19:33:14.617Z,8.15
2023-03-17T19:36:02.793Z,8.08
2023-03-17T19:38:49.973Z,8.06
2023-03-17T19:41:36.062Z,7.96
2023-03-17T19:44:22.664Z,7.88
2023-03-17T19:47:12.973Z,7.81
2023-03-17T19:49:58.920Z,7.81
2023-03-17T19:52:46.233Z,7.73
2023-03-17T19:55:32.645Z,7.69
2023-03-17T19:58:18.988Z,7.62
2023-03-17T20:01:05.721Z,7.60
2023-03-17T20:03:51.920Z,7.57
2023-03-17T20:06:38.500Z,7.49
2023-03-17T20:09:26.438Z,7.54
2023-03-17T20:12:13.063Z,7.45
2023-03-17T20:15:03.336Z,7.41
2023-03-17T20:17:49.253Z,7.40
2023-03-17T20:20:35.211Z,7.35
2023-03-17T20:23:21.791Z,7.28
2023-03-17T20:26:08.432Z,7.30
2023-03-17T20:28:55.856Z,7.31
2023-03-17T20:31:49.591Z,7.22
2023-03-17T20:34:35.689Z,7.19
2023-03-17T20:37:22.687Z,7.16
2023-03-17T20:40:10.757Z,7.07
2023-03-17T20:42:57.217Z,7.01
2023-03-17T20:45:43.540Z,6.99
2023-03-17T20:48:30.348Z,6.92
2023-03-17T20:51:16.902Z,6.89
2023-03-17T20:54:03.241Z,6.80
2023-03-17T20:56:52.548Z,6.74
2023-03-17T20:59:39.144Z,6.70
2023-03-17T21:02:25.916Z,6.62
2023-03-17T21:05:17.187Z,6.49
2023-03-17T21:08:05.575Z,6.49
2023-03-17T21:10:51.722Z,6.45
2023-03-17T21:13:50.284Z,6.31
2023-03-17T21:16:37.211Z,6.28
2023-03-17T21:19:23.545Z,6.20
2023-03-17T21:22:10.187Z,6.18
2023-03-17T21:24:55.982Z,6.13
2023-03-17T21:27:42.744Z,6.13
2023-03-17T21:30:29.163Z,6.11
2023-03-17T21:33:15.490Z,6.10
2023-03-17T21:36:01.620Z,6.08
2023-03-17T21:38:47.711Z,6.05
2023-03-17T21:41:35.770Z,6.00
2023-03-17T21:44:22.305Z,6.01
2023-03-17T21:47:08.159Z,6.00
2023-03-17T21:49:54.090Z,5.95
2023-03-17T21:52:40.214Z,5.96
2023-03-17T21:55:26.269Z,5.88
2023-03-17T21:58:12.545Z,5.87
2023-03-17T22:01:00.687Z,5.85
2023-03-17T22:03:46.664Z,5.82
2023-03-17T22:06:32.632Z,5.83
2023-03-17T22:09:19.440Z,5.78
2023-03-17T22:12:06.046Z,5.79
2023-03-17T22:14:52.352Z,5.74
2023-03-17T22:17:39.772Z,5.69
2023-03-17T22:20:25.748Z,5.74
2023-03-17T22:23:11.812Z,5.67
2023-03-17T22:25:58.497Z,5.67
2023-03-17T22:28:45.370Z,5.63
2023-03-17T22:31:31.749Z,5.61
2023-03-17T22:34:18.299Z,5.55
2023-03-17T22:37:04.915Z,5.54
2023-03-17T22:39:52.098Z,5.49
2023-03-17T22:42:38.213Z,5.47
2023-03-17T22:45:25.018Z,5.48
2023-03-17T22:48:11.236Z,5.41
2023-03-17T22:51:01.602Z,5.43
2023-03-17T22:53:48.235Z,5.23
2023-03-17T22:56:34.380Z,5.38
2023-03-17T22:59:20.384Z,5.24
2023-03-17T23:02:06.466Z,5.35
2023-03-17T23:04:52.969Z,5.27
2023-03-17T23:07:49.469Z,5.30
2023-03-17T23:10:35.541Z,5.22
2023-03-17T23:13:21.482Z,5.19
2023-03-17T23:16:08.321Z,5.22
2023-03-17T23:18:54.510Z,5.15
2023-03-17T23:21:40.602Z,5.14
2023-03-17T23:24:26.570Z,5.11
2023-03-17T23:27:12.558Z,5.07
2023-03-17T23:29:59.329Z,5.05
2023-03-17T23:32:45.888Z,5.04
2023-03-17T23:35:32.256Z,4.95
2023-03-17T23:38:19.722Z,4.97
2023-03-17T23:41:05.276Z,4.94
2023-03-17T23:43:51.349Z,4.83
2023-03-17T23:46:37.478Z,4.91
2023-03-17T23:49:23.700Z,4.84
2023-03-17T23:52:11.288Z,4.85
2023-03-17T23:54:57.755Z,4.75
2023-03-17T23:57:44.376Z,4.74
